Time;durP1;ratioP1;P1;durP2;ratioP2;P2;SDS_P1;SDS_P2;PMS_P1;PMS_P2;Temp;Humidity;BMP_temperature;BMP_pressure;BME280_temperature;BME280_humidity;BME280_pressure;Samples;Min_cycle;Max_cycle;Signal;HPM_P1;HPM_P2
2021/07/17 00:01:35;;;;;;;12.35;9.95;;;;;;;23.59;76.38;99048.69;4804575;29;20051;-49
2021/07/17 00:04:01;;;;;;;15.07;10.15;;;;;;;23.58;76.75;99054.16;4803763;29;20063;-49
2021/07/17 00:06:27;;;;;;;16.02;10.07;;;;;;;23.55;77.30;99062.41;4812126;29;20050;-49
2021/07/17 00:08:52;;;;;;;16.00;10.50;;;;;;;23.54;76.93;99058.09;4804336;29;20514;-49
2021/07/17 00:11:20;;;;;;;18.67;10.88;;;;;;;23.52;76.82;99047.63;4805917;29;20085;-49
2021/07/17 00:13:47;;;;;;;15.50;10.80;;;;;;;23.52;77.49;99046.78;4822599;29;20038;-52
2021/07/17 00:16:14;;;;;;;15.48;10.52;;;;;;;23.50;77.26;99044.28;4822438;29;20047;-52
2021/07/17 00:18:40;;;;;;;16.95;10.65;;;;;;;23.51;77.42;99047.75;4809710;29;20049;-50
2021/07/17 00:21:05;;;;;;;16.13;10.50;;;;;;;23.50;77.90;99043.47;4803935;29;20039;-50
2021/07/17 00:23:31;;;;;;;13.73;10.63;;;;;;;23.49;78.02;99041.78;4803430;29;20057;-49
2021/07/17 00:26:03;;;;;;;16.35;10.70;;;;;;;23.48;77.90;99037.47;4803922;29;20051;-50
2021/07/17 00:28:31;;;;;;;15.68;10.25;;;;;;;23.48;77.93;99037.47;4804095;29;20423;-51
2021/07/17 00:30:57;;;;;;;16.58;10.80;;;;;;;23.45;77.80;99027.09;4802925;29;20133;-50
2021/07/17 00:33:23;;;;;;;14.45;10.95;;;;;;;23.45;77.85;99030.63;4803800;29;20039;-50
2021/07/17 00:35:48;;;;;;;16.10;11.23;;;;;;;23.43;77.97;99031.72;4803397;29;20376;-51
2021/07/17 00:38:15;;;;;;;15.88;11.65;;;;;;;23.42;78.31;99038.03;4802418;29;20579;-51
2021/07/17 00:40:40;;;;;;;15.68;11.75;;;;;;;23.37;78.60;99049.09;4803454;29;20055;-49
2021/07/17 00:43:06;;;;;;;15.70;11.50;;;;;;;23.35;79.02;99055.50;4803391;29;20099;-50
2021/07/17 00:45:32;;;;;;;18.10;11.35;;;;;;;23.33;79.24;99063.63;4804017;29;20047;-52
2021/07/17 00:47:58;;;;;;;14.95;10.70;;;;;;;23.30;79.50;99061.25;4801960;29;20151;-49
2021/07/17 00:50:26;;;;;;;14.20;11.07;;;;;;;23.25;79.70;99052.91;4803489;29;20139;-49
2021/07/17 00:52:51;;;;;;;15.30;10.80;;;;;;;23.25;79.96;99063.53;4804632;29;20055;-50
2021/07/17 00:55:19;;;;;;;16.40;11.23;;;;;;;23.22;80.28;99066.50;4807192;29;20111;-48
2021/07/17 00:57:47;;;;;;;13.43;10.32;;;;;;;23.19;80.86;99056.16;4806915;29;20046;-51
2021/07/17 01:00:14;;;;;;;12.38;10.10;;;;;;;23.19;81.37;99059.66;4806490;29;20430;-49
2021/07/17 01:02:47;;;;;;;12.52;10.13;;;;;;;23.18;81.72;99051.84;4806882;29;20145;-50
2021/07/17 01:05:14;;;;;;;15.40;10.07;;;;;;;23.15;81.94;99052.97;4813346;29;20050;-48
2021/07/17 01:07:45;;;;;;;18.10;10.63;;;;;;;23.13;82.03;99049.63;4825079;29;20107;-49
2021/07/17 01:10:12;;;;;;;12.07;9.77;;;;;;;23.13;82.06;99056.78;4824894;29;20068;-51
2021/07/17 01:12:38;;;;;;;14.00;10.65;;;;;;;23.11;81.78;99051.59;4802823;29;20605;-51
2021/07/17 01:15:04;;;;;;;12.85;9.77;;;;;;;23.09;81.48;99056.22;4808396;29;20126;-49
2021/07/17 01:17:31;;;;;;;15.35;10.40;;;;;;;23.10;81.57;99057.03;4806738;29;20047;-47
2021/07/17 01:19:57;;;;;;;11.30;9.52;;;;;;;23.08;81.59;99045.78;4806721;29;20111;-50
2021/07/17 01:22:23;;;;;;;11.75;9.60;;;;;;;23.08;81.75;99041.28;4806763;29;20051;-48
2021/07/17 01:24:48;;;;;;;12.85;10.05;;;;;;;23.08;82.14;99048.41;4806813;29;20055;-50
2021/07/17 01:27:17;;;;;;;13.63;10.27;;;;;;;23.07;82.07;99049.41;4806437;29;20043;-50
2021/07/17 01:29:46;;;;;;;16.98;10.20;;;;;;;23.08;81.78;99046.56;4806601;29;20431;-47
2021/07/17 01:32:12;;;;;;;;;;;;;;;23.07;81.68;99044.94;4806933;29;20427;-48
2021/07/17 01:34:38;;;;;;;16.67;9.98;;;;;;;23.07;81.02;99054.69;4805380;29;19935;-47
2021/07/17 01:37:04;;;;;;;13.85;9.85;;;;;;;23.07;81.09;99052.06;4806568;29;20068;-49
2021/07/17 01:39:30;;;;;;;12.63;10.40;;;;;;;23.08;81.14;99051.88;4806657;29;20058;-50
2021/07/17 01:41:56;;;;;;;16.23;10.60;;;;;;;23.08;81.43;99051.88;4805821;29;20051;-49
2021/07/17 01:44:22;;;;;;;12.50;10.05;;;;;;;23.09;81.54;99053.56;4806351;29;20043;-49
2021/07/17 01:46:47;;;;;;;11.43;10.20;;;;;;;23.11;81.45;99050.78;4806812;29;20090;-50
2021/07/17 01:49:13;;;;;;;15.32;9.98;;;;;;;23.07;81.43;99042.28;4806220;29;20055;-53
2021/07/17 01:51:39;;;;;;;12.10;10.05;;;;;;;23.12;81.13;99047.13;4806305;29;20043;-49
2021/07/17 01:54:05;;;;;;;14.48;10.02;;;;;;;23.13;81.55;99046.16;4805724;29;20091;-51
2021/07/17 01:56:31;;;;;;;13.15;10.57;;;;;;;23.14;81.58;99048.66;4806468;29;20081;-50
2021/07/17 01:58:57;;;;;;;15.68;10.45;;;;;;;23.15;81.82;99049.47;4806144;29;20256;-48
2021/07/17 02:01:24;;;;;;;12.88;10.18;;;;;;;23.17;81.75;99052.84;4805486;29;20038;-54
2021/07/17 02:03:50;;;;;;;11.98;10.18;;;;;;;23.18;81.76;99049.19;5305550;23;20061;-47
2021/07/17 02:06:34;;;;;;;17.10;10.82;;;;;;;23.19;81.29;99042.88;4859527;29;20049;-49
2021/07/17 02:09:00;;;;;;;14.98;11.13;;;;;;;23.21;81.12;99033.81;4860662;29;20539;-49
2021/07/17 02:11:25;;;;;;;14.57;11.32;;;;;;;23.22;81.13;99034.66;4860852;29;20061;-49
2021/07/17 02:13:52;;;;;;;16.05;11.10;;;;;;;23.21;81.20;99031.16;4849255;29;20054;-49
2021/07/17 02:16:19;;;;;;;14.00;10.80;;;;;;;23.28;81.10;99035.88;4824033;29;20185;-49
2021/07/17 02:18:45;;;;;;;14.20;10.77;;;;;;;23.29;81.14;99037.56;4822918;29;20046;-50
2021/07/17 02:21:12;;;;;;;15.52;10.90;;;;;;;23.31;81.10;99032.91;4830412;29;20058;-52
2021/07/17 02:23:38;;;;;;;13.85;10.60;;;;;;;23.32;80.87;99042.56;4822614;29;20514;-53
2021/07/17 02:26:04;;;;;;;16.17;11.13;;;;;;;23.33;81.41;99042.41;4807890;29;20052;-49
2021/07/17 02:28:30;;;;;;;18.13;11.48;;;;;;;23.35;81.29;99027.16;4823650;29;20050;-51
2021/07/17 02:30:56;;;;;;;13.38;11.20;;;;;;;23.35;81.34;99037.78;4823695;29;20403;-51
2021/07/17 02:33:22;;;;;;;16.52;10.98;;;;;;;23.36;81.69;99023.53;4822463;29;20046;-51
2021/07/17 02:35:48;;;;;;;12.88;11.13;;;;;;;23.39;81.50;99036.50;4823662;29;20566;-51
2021/07/17 02:38:14;;;;;;;15.43;10.50;;;;;;;23.40;81.64;99032.84;4831009;29;20058;-49
2021/07/17 02:40:40;;;;;;;15.60;11.15;;;;;;;23.42;81.66;99030.06;4840789;29;20522;-49
2021/07/17 02:43:06;;;;;;;29.33;12.25;;;;;;;23.43;81.76;99031.72;4822439;29;20034;-47
2021/07/17 02:45:32;;;;;;;12.70;10.57;;;;;;;23.47;82.08;99033.13;4822086;29;20042;-51
2021/07/17 02:47:58;;;;;;;12.82;10.30;;;;;;;23.50;82.05;99044.28;4819557;29;20050;-48
2021/07/17 02:50:23;;;;;;;14.02;10.88;;;;;;;23.51;82.21;99040.63;4819543;29;20057;-51
2021/07/17 02:52:49;;;;;;;15.05;11.25;;;;;;;23.55;82.11;99039.34;4821713;29;20140;-51
2021/07/17 02:55:15;;;;;;;16.23;11.65;;;;;;;23.59;81.67;99039.91;4823248;29;20536;-50
2021/07/17 02:57:41;;;;;;;13.77;11.38;;;;;;;23.63;81.74;99035.94;4823843;29;20429;-52
2021/07/17 03:00:10;;;;;;;15.85;11.75;;;;;;;23.65;81.20;99039.31;4822815;29;20046;-50
2021/07/17 03:02:36;;;;;;;14.20;11.45;;;;;;;23.70;81.26;99049.47;4834238;29;20517;-50
2021/07/17 03:05:02;;;;;;;15.85;11.40;;;;;;;23.74;81.06;99049.00;4818968;29;20062;-51
2021/07/17 03:07:29;;;;;;;12.75;10.88;;;;;;;23.76;81.09;99054.97;4818946;29;20144;-52
2021/07/17 03:09:55;;;;;;;19.02;12.30;;;;;;;23.80;81.28;99047.56;4821462;29;20187;-52
2021/07/17 03:12:20;;;;;;;18.30;11.60;;;;;;;23.84;81.54;99057.72;4834976;29;20524;-52
2021/07/17 03:14:47;;;;;;;15.48;12.00;;;;;;;23.87;81.72;99053.91;4833053;29;20053;-53
2021/07/17 03:17:13;;;;;;;16.05;12.63;;;;;;;23.92;81.77;99063.09;4822808;29;20046;-52
2021/07/17 03:19:40;;;;;;;17.45;12.57;;;;;;;23.96;81.89;99063.66;4825684;29;20140;-49
2021/07/17 03:22:06;;;;;;;15.07;11.98;;;;;;;24.01;82.06;99058.72;4841298;29;20053;-51
2021/07/17 03:24:32;;;;;;;18.30;13.00;;;;;;;24.03;81.56;99062.03;4841525;29;20037;-52
2021/07/17 03:26:57;;;;;;;19.00;12.63;;;;;;;24.07;81.88;99056.25;4826887;29;20042;-52
2021/07/17 03:29:23;;;;;;;17.33;12.80;;;;;;;24.12;81.33;99054.97;4821683;29;20077;-52
2021/07/17 03:31:49;;;;;;;18.05;11.93;;;;;;;24.15;81.50;99052.00;4823096;29;20536;-51
2021/07/17 03:34:15;;;;;;;16.20;11.60;;;;;;;24.19;81.53;99059.53;4822859;29;20043;-51
2021/07/17 03:36:41;;;;;;;19.48;13.05;;;;;;;24.23;81.11;99054.78;4822824;29;20046;-51
2021/07/17 03:39:07;;;;;;;15.38;11.65;;;;;;;24.27;80.63;99046.34;4832221;29;20124;-52
2021/07/17 03:41:33;;;;;;;15.80;11.65;;;;;;;24.30;80.51;99055.81;4847165;29;20163;-53
2021/07/17 03:43:59;;;;;;;19.33;11.88;;;;;;;24.32;79.94;99049.34;4822576;29;20172;-52
2021/07/17 03:46:25;;;;;;;21.05;13.30;;;;;;;24.36;79.72;99055.19;4822538;29;20549;-48
2021/07/17 03:48:50;;;;;;;20.52;13.30;;;;;;;24.41;79.58;99050.25;4822430;29;20050;-49
2021/07/17 03:51:16;;;;;;;26.60;16.48;;;;;;;24.44;79.23;99047.28;4822548;29;20054;-49
2021/07/17 03:53:42;;;;;;;20.17;12.55;;;;;;;24.47;78.99;99042.50;4821941;29;20057;-52
2021/07/17 03:56:08;;;;;;;17.58;13.20;;;;;;;24.53;78.31;99049.00;4822559;29;20132;-52
2021/07/17 03:58:33;;;;;;;18.98;13.05;;;;;;;24.60;78.29;99036.72;4822462;29;20070;-51
2021/07/17 04:00:59;;;;;;;21.73;12.85;;;;;;;24.65;77.90;99036.28;4822650;29;20054;-51
2021/07/17 04:03:25;;;;;;;16.92;12.27;;;;;;;24.71;77.47;99043.59;4821700;29;20211;-52
2021/07/17 04:05:51;;;;;;;17.80;12.27;;;;;;;24.76;76.77;99034.16;4826164;29;20584;-53
2021/07/17 04:08:17;;;;;;;17.25;11.35;;;;;;;24.80;76.55;99038.19;4821792;29;20054;-49
2021/07/17 04:10:43;;;;;;;16.35;12.73;;;;;;;24.85;76.58;99035.06;4822498;29;20039;-53
2021/07/17 04:13:08;;;;;;;20.50;12.45;;;;;;;24.90;76.32;99030.13;4829803;29;20049;-50
2021/07/17 04:15:34;;;;;;;22.75;11.45;;;;;;;24.98;76.40;99034.63;4828933;29;20081;-52
2021/07/17 04:18:00;;;;;;;18.40;13.05;;;;;;;25.02;76.01;99039.47;4821720;29;20052;-48
2021/07/17 04:20:25;;;;;;;20.90;11.70;;;;;;;25.05;76.06;99033.00;4821811;29;20050;-50
2021/07/17 04:22:51;;;;;;;25.77;13.07;;;;;;;25.11;75.85;99038.53;4822392;29;20124;-52
2021/07/17 04:25:17;;;;;;;22.40;12.00;;;;;;;25.17;75.63;99040.56;4822331;29;20137;-49
2021/07/17 04:27:43;;;;;;;24.15;13.93;;;;;;;25.25;75.78;99039.72;4821023;29;20082;-49
2021/07/17 04:30:10;;;;;;;23.05;12.57;;;;;;;25.30;74.84;99042.75;4822644;29;20468;-53
2021/07/17 04:32:36;;;;;;;20.30;12.35;;;;;;;25.36;74.67;99049.25;4822235;29;20042;-51
2021/07/17 04:35:07;;;;;;;16.20;13.52;;;;;;;25.40;73.84;99043.44;4821725;29;20133;-48
2021/07/17 04:37:33;;;;;;;17.35;12.45;;;;;;;25.47;74.01;99043.63;4820412;29;20049;-51
2021/07/17 04:39:59;;;;;;;16.80;12.00;;;;;;;25.52;73.60;99041.31;4822285;29;20077;-48
2021/07/17 04:42:24;;;;;;;21.92;13.70;;;;;;;25.58;72.98;99049.50;4820341;29;20053;-49
2021/07/17 04:44:50;;;;;;;32.78;22.40;;;;;;;25.66;73.03;99046.00;4820943;29;20414;-49
2021/07/17 04:47:16;;;;;;;21.30;12.82;;;;;;;25.70;72.47;99052.66;4821045;29;20172;-53
2021/07/17 04:49:41;;;;;;;15.52;11.15;;;;;;;25.76;73.07;99052.03;4821742;29;20437;-49
2021/07/17 04:52:07;;;;;;;19.73;12.75;;;;;;;25.80;71.64;99050.72;4821329;29;20046;-49
2021/07/17 04:54:33;;;;;;;15.70;11.70;;;;;;;25.84;71.36;99052.03;4821508;29;20054;-48
2021/07/17 04:56:58;;;;;;;20.27;13.93;;;;;;;25.94;71.00;99057.22;4822562;29;20053;-51
2021/07/17 04:59:24;;;;;;;16.52;11.40;;;;;;;25.98;70.68;99062.03;4820750;29;20484;-50
2021/07/17 05:01:50;;;;;;;19.35;12.07;;;;;;;26.05;69.75;99052.41;4821469;29;20047;-50
2021/07/17 05:04:15;;;;;;;18.30;12.00;;;;;;;26.12;69.34;99052.53;4821476;29;20058;-48
2021/07/17 05:06:41;;;;;;;20.33;11.88;;;;;;;26.19;69.25;99050.03;4804520;29;20425;-47
2021/07/17 05:09:07;;;;;;;26.58;17.38;;;;;;;26.25;68.80;99062.75;4821959;29;20085;-48
2021/07/17 05:11:33;;;;;;;16.52;11.63;;;;;;;26.19;68.85;99036.72;4827491;29;20406;-49
2021/07/17 05:13:59;;;;;;;17.77;11.90;;;;;;;26.39;68.23;99064.72;4832590;29;20201;-53
2021/07/17 05:16:25;;;;;;;13.23;11.52;;;;;;;26.44;68.17;99055.22;4821597;29;20042;-48
2021/07/17 05:18:51;;;;;;;16.70;11.48;;;;;;;26.47;67.51;99054.91;4821530;29;20042;-49
2021/07/17 05:21:16;;;;;;;19.15;12.43;;;;;;;26.51;67.69;99064.22;4821984;29;20106;-51
2021/07/17 05:23:43;;;;;;;17.10;11.98;;;;;;;26.63;67.97;99061.19;4821621;29;20070;-51
2021/07/17 05:26:09;;;;;;;14.93;11.90;;;;;;;26.73;67.92;99068.00;4820494;29;20055;-50
2021/07/17 05:28:34;;;;;;;18.48;11.07;;;;;;;26.80;67.81;99055.63;4821396;29;20061;-49
2021/07/17 05:31:00;;;;;;;15.95;12.40;;;;;;;26.92;67.47;99058.81;4835881;29;20133;-48
2021/07/17 05:33:26;;;;;;;15.95;11.38;;;;;;;26.97;65.21;99051.94;4821606;29;20128;-48
2021/07/17 05:35:52;;;;;;;15.73;11.85;;;;;;;27.04;65.14;99062.78;4821397;29;20046;-47
2021/07/17 05:38:17;;;;;;;17.00;11.98;;;;;;;27.13;64.42;99058.22;4836052;29;20077;-51
2021/07/17 05:40:43;;;;;;;17.27;12.13;;;;;;;27.20;63.82;99061.88;4824561;29;20038;-49
2021/07/17 05:43:09;;;;;;;22.30;12.07;;;;;;;27.28;63.56;99060.00;4824560;29;20055;-51
2021/07/17 05:45:35;;;;;;;17.30;12.00;;;;;;;27.40;63.96;99063.94;4824164;29;20125;-48
2021/07/17 05:48:02;;;;;;;17.73;11.60;;;;;;;27.53;62.93;99071.41;4826788;29;20095;-49
2021/07/17 05:50:28;;;;;;;20.38;11.52;;;;;;;27.64;61.54;99072.84;4823708;29;20053;-53
2021/07/17 05:52:54;;;;;;;17.92;10.80;;;;;;;27.75;60.23;99069.78;4824295;29;20035;-49
2021/07/17 05:55:19;;;;;;;16.15;10.98;;;;;;;27.85;59.79;99072.22;4824606;29;20513;-49
2021/07/17 05:57:45;;;;;;;15.15;10.50;;;;;;;27.96;59.21;99059.28;4824440;29;20058;-48
2021/07/17 06:00:11;;;;;;;15.85;10.93;;;;;;;28.08;59.60;99057.84;4837662;29;20129;-49
2021/07/17 06:02:40;;;;;;;13.40;10.93;;;;;;;28.20;58.72;99063.63;4823298;29;20171;-49
2021/07/17 06:05:06;;;;;;;13.82;9.57;;;;;;;28.28;58.58;99068.91;4826995;29;20134;-47
2021/07/17 06:07:32;;;;;;;12.93;11.20;;;;;;;28.35;58.44;99061.84;4829957;29;20050;-49
2021/07/17 06:09:58;;;;;;;15.00;11.35;;;;;;;28.43;58.87;99061.75;4828106;29;20046;-52
2021/07/17 06:12:23;;;;;;;13.05;11.60;;;;;;;28.49;58.60;99071.72;4841820;29;20038;-51
2021/07/17 06:14:49;;;;;;;16.08;11.80;;;;;;;28.57;58.84;99058.28;4842457;29;20537;-51
2021/07/17 06:17:14;;;;;;;15.95;11.32;;;;;;;28.71;58.11;99061.13;4842244;29;20113;-54
2021/07/17 06:19:41;;;;;;;21.20;11.52;;;;;;;28.83;57.49;99057.88;4842097;29;20041;-51
2021/07/17 06:22:08;;;;;;;29.17;12.45;;;;;;;28.99;58.02;99055.00;4824102;29;20049;-54
2021/07/17 06:24:34;;;;;;;19.48;11.43;;;;;;;29.14;56.87;99051.47;4823603;29;20051;-53
2021/07/17 06:26:59;;;;;;;15.82;10.30;;;;;;;29.28;55.19;99056.81;4824097;29;20054;-53
2021/07/17 06:29:25;;;;;;;50.92;12.30;;;;;;;29.42;54.76;99058.66;4823238;29;20053;-53
2021/07/17 06:31:51;;;;;;;13.27;10.20;;;;;;;29.60;53.68;99063.59;4807325;29;20050;-53
2021/07/17 06:34:16;;;;;;;12.38;10.02;;;;;;;29.75;52.16;99058.19;4823304;29;20052;-51
2021/07/17 06:36:42;;;;;;;11.40;10.20;;;;;;;29.93;51.48;99055.94;4823812;29;20370;-53
2021/07/17 06:39:09;;;;;;;10.90;9.07;;;;;;;30.17;49.18;99052.84;4822952;29;20053;-56
2021/07/17 06:41:34;;;;;;;13.48;9.60;;;;;;;30.47;48.38;99050.84;4835594;29;20416;-55
2021/07/17 06:44:00;;;;;;;10.38;9.38;;;;;;;30.99;47.48;99057.56;4849094;29;20118;-53
2021/07/17 06:46:26;;;;;;;14.32;10.18;;;;;;;31.53;46.26;99053.09;4846597;29;20100;-55
2021/07/17 06:48:52;;;;;;;12.02;9.70;;;;;;;32.48;44.51;99048.50;4848498;29;20050;-57
2021/07/17 06:51:18;;;;;;;11.38;10.23;;;;;;;33.54;42.41;99061.50;4832765;29;20042;-57
2021/07/17 06:53:43;;;;;;;13.00;10.20;;;;;;;34.50;40.23;99060.44;4834772;29;20050;-57
2021/07/17 06:56:13;;;;;;;20.45;10.85;;;;;;;35.38;39.08;99063.72;4832831;29;20554;-58
2021/07/17 06:58:39;;;;;;;13.50;10.77;;;;;;;36.17;36.87;99062.63;4839322;29;20409;-56
2021/07/17 07:01:05;;;;;;;17.42;11.52;;;;;;;37.00;35.00;99065.13;4843644;29;20042;-57
2021/07/17 07:03:30;;;;;;;15.40;11.07;;;;;;;37.70;33.09;99063.88;4821501;29;20463;-55
2021/07/17 07:05:57;;;;;;;17.67;11.05;;;;;;;38.16;32.05;99064.72;4832687;29;20064;-53
2021/07/17 07:08:23;;;;;;;14.68;11.23;;;;;;;38.77;31.79;99063.00;4841289;29;20050;-57
2021/07/17 07:10:48;;;;;;;16.45;12.02;;;;;;;39.44;30.82;99070.97;4823355;29;20418;-57
2021/07/17 07:13:16;;;;;;;482.80;64.00;;;;;;;40.13;30.01;99058.38;4822550;29;20034;-60
2021/07/17 07:15:42;;;;;;;238.35;37.85;;;;;;;40.78;29.59;99065.41;4823158;29;20038;-55
2021/07/17 07:18:08;;;;;;;14.70;11.50;;;;;;;41.36;28.05;99062.44;4806440;29;20422;-56
2021/07/17 07:20:34;;;;;;;19.40;12.00;;;;;;;41.90;27.47;99067.53;4835796;29;20454;-55
2021/07/17 07:23:00;;;;;;;12.88;11.57;;;;;;;42.26;25.51;99063.72;4836905;29;20074;-56
2021/07/17 07:25:27;;;;;;;13.10;11.75;;;;;;;42.66;25.50;99064.78;4830326;29;20390;-57
2021/07/17 07:27:52;;;;;;;16.37;11.57;;;;;;;42.98;25.44;99075.41;4822389;29;20129;-57
2021/07/17 07:30:18;;;;;;;13.32;11.35;;;;;;;43.11;24.63;99072.13;4822921;29;20406;-55
2021/07/17 07:32:44;;;;;;;15.63;12.32;;;;;;;43.85;24.29;99065.72;4824007;29;20053;-52
2021/07/17 07:35:10;;;;;;;19.30;12.23;;;;;;;44.20;23.85;99056.44;4821227;29;20041;-54
2021/07/17 07:37:36;;;;;;;12.52;11.32;;;;;;;44.39;23.21;99056.56;4833172;29;20038;-57
2021/07/17 07:40:03;;;;;;;13.80;11.68;;;;;;;44.52;22.49;99062.19;4840806;29;20049;-56
2021/07/17 07:42:29;;;;;;;13.32;11.88;;;;;;;44.80;22.40;99060.56;4828380;29;20462;-55
2021/07/17 07:44:54;;;;;;;11.93;10.75;;;;;;;44.22;22.22;99062.44;4850753;29;20042;-57
2021/07/17 07:47:23;;;;;;;12.88;11.65;;;;;;;44.42;22.25;99055.97;4847443;29;20120;-55
2021/07/17 07:49:49;;;;;;;12.93;11.63;;;;;;;44.75;21.78;99060.63;4821988;29;20491;-54
2021/07/17 07:52:15;;;;;;;94.45;20.92;;;;;;;45.37;21.54;99053.28;4822658;29;20153;-54
2021/07/17 07:54:40;;;;;;;15.32;12.02;;;;;;;45.44;20.53;99054.56;4827948;29;20045;-55
2021/07/17 07:57:06;;;;;;;330.35;51.72;;;;;;;45.85;21.13;99054.00;4839002;29;20049;-54
2021/07/17 07:59:32;;;;;;;382.45;59.25;;;;;;;46.54;20.64;99060.56;4848954;29;20050;-53
2021/07/17 08:01:58;;;;;;;109.05;24.48;;;;;;;46.85;19.95;99052.56;4826398;29;20050;-56
2021/07/17 08:04:23;;;;;;;15.38;13.45;;;;;;;46.78;19.81;99052.97;4831700;29;20068;-51
2021/07/17 08:06:50;;;;;;;13.57;12.27;;;;;;;46.45;20.23;99052.19;4835272;29;20052;-54
2021/07/17 08:09:16;;;;;;;13.07;11.98;;;;;;;46.08;20.17;99052.25;4831620;29;20133;-53
2021/07/17 08:11:42;;;;;;;12.68;11.30;;;;;;;45.44;21.21;99049.06;4831608;29;20140;-54
2021/07/17 08:14:07;;;;;;;13.30;12.25;;;;;;;45.30;21.27;99041.84;4830823;29;20050;-54
2021/07/17 08:16:34;;;;;;;13.10;12.00;;;;;;;45.21;21.06;99035.38;4826666;29;20058;-55
2021/07/17 08:18:59;;;;;;;13.38;12.35;;;;;;;45.76;20.77;99040.09;4833750;29;20046;-56
2021/07/17 08:21:26;;;;;;;21.15;16.05;;;;;;;46.32;20.39;99039.22;4828739;29;20141;-55
2021/07/17 08:23:52;;;;;;;39.75;15.63;;;;;;;46.71;20.05;99039.59;4831628;29;20128;-55
2021/07/17 08:26:18;;;;;;;69.13;20.58;;;;;;;46.98;20.29;99040.75;4830646;29;20517;-55
2021/07/17 08:28:43;;;;;;;76.35;22.35;;;;;;;47.18;20.18;99038.38;4836927;29;20073;-53
2021/07/17 08:31:10;;;;;;;14.93;13.18;;;;;;;47.29;19.85;99039.00;4828960;29;21310;-55
2021/07/17 08:33:36;;;;;;;270.33;39.80;;;;;;;46.08;20.98;99031.06;4829732;29;20082;-52
2021/07/17 08:36:02;;;;;;;424.23;60.13;;;;;;;44.58;22.89;99021.81;4819375;29;20458;-55
2021/07/17 08:38:28;;;;;;;158.98;29.25;;;;;;;44.33;23.34;99031.13;4828629;29;20058;-56
2021/07/17 08:40:55;;;;;;;19.35;13.07;;;;;;;45.38;21.91;99031.00;4828890;29;20054;-57
2021/07/17 08:43:22;;;;;;;155.95;28.58;;;;;;;45.51;21.32;99024.81;4829931;29;20049;-55
2021/07/17 08:45:48;;;;;;;151.57;26.43;;;;;;;43.64;23.56;99025.88;4828651;29;20046;-56
2021/07/17 08:48:15;;;;;;;13.93;12.57;;;;;;;41.82;25.22;99010.72;4830185;29;20307;-58
2021/07/17 08:50:41;;;;;;;14.82;13.57;;;;;;;41.82;25.64;99013.44;4831398;29;20051;-52
2021/07/17 08:53:07;;;;;;;16.35;13.55;;;;;;;43.56;24.06;99019.06;4832692;29;20053;-55
2021/07/17 08:55:33;;;;;;;14.18;12.90;;;;;;;43.41;23.85;99017.22;4828808;29;20038;-54
2021/07/17 08:57:58;;;;;;;16.17;13.25;;;;;;;44.29;22.69;99016.34;4828154;29;20042;-56
2021/07/17 09:00:30;;;;;;;13.43;12.30;;;;;;;44.92;21.24;99017.03;4829839;29;20042;-56
2021/07/17 09:03:01;;;;;;;16.23;14.18;;;;;;;45.50;20.69;99008.63;4832276;29;20046;-53
2021/07/17 09:05:30;;;;;;;15.15;13.85;;;;;;;46.23;20.81;99008.84;4827513;29;20152;-57
2021/07/17 09:07:56;;;;;;;182.82;33.40;;;;;;;46.59;20.30;99010.94;4830431;29;20085;-56
2021/07/17 09:10:25;;;;;;;14.55;13.35;;;;;;;45.58;20.99;99001.66;4837890;29;20057;-54
2021/07/17 09:13:11;;;;;;;14.68;13.48;;;;;;;45.76;21.13;98996.13;4838273;29;20585;-52
2021/07/17 09:15:39;;;;;;;16.50;14.80;;;;;;;46.72;20.51;98997.22;4832706;29;20110;-56
2021/07/17 09:18:06;;;;;;;73.63;22.05;;;;;;;47.30;19.83;99001.25;4832605;29;20069;-55
2021/07/17 09:20:33;;;;;;;21.15;14.90;;;;;;;47.78;18.98;98998.78;4832433;29;20075;-55
2021/07/17 09:23:06;;;;;;;16.38;14.85;;;;;;;48.16;18.77;98994.50;4832980;29;20473;-56
2021/07/17 09:25:38;;;;;;;175.63;33.78;;;;;;;48.49;18.32;98995.00;4832567;29;20046;-57
2021/07/17 09:28:20;;;;;;;15.27;14.10;;;;;;;48.71;17.48;98989.44;4832204;29;20069;-57
2021/07/17 09:30:50;;;;;;;16.02;14.15;;;;;;;48.83;17.20;98991.59;4833522;29;20505;-55
2021/07/17 09:33:17;;;;;;;13.43;12.32;;;;;;;48.05;18.09;98987.63;4830702;29;20132;-55
2021/07/17 09:35:46;;;;;;;14.10;12.80;;;;;;;47.03;19.10;98978.13;4833292;29;20517;-56
2021/07/17 09:38:14;;;;;;;14.73;13.63;;;;;;;47.53;18.11;98975.34;4832338;29;20066;-57
2021/07/17 09:40:51;;;;;;;14.32;13.13;;;;;;;48.02;17.51;98971.72;4833063;29;20046;-53
2021/07/17 09:43:30;;;;;;;15.00;13.55;;;;;;;48.65;17.41;98967.78;4832458;29;20046;-55
2021/07/17 09:45:57;;;;;;;14.82;13.63;;;;;;;49.06;17.27;98970.22;4831766;29;20564;-54
2021/07/17 09:48:28;;;;;;;15.98;14.77;;;;;;;49.19;16.88;98963.72;4830077;29;20126;-55
2021/07/17 09:50:54;;;;;;;15.85;14.20;;;;;;;48.53;17.47;98970.34;4834476;29;20049;-57
2021/07/17 09:53:46;;;;;;;28.15;16.65;;;;;;;48.89;17.49;98959.91;4834044;29;20046;-55
2021/07/17 09:56:14;;;;;;;18.48;15.60;;;;;;;47.96;18.08;98954.44;4821039;29;20148;-56
2021/07/17 09:58:41;;;;;;;16.90;15.43;;;;;;;48.53;17.93;98945.50;4821370;29;20090;-57
2021/07/17 10:01:22;;;;;;;16.27;14.85;;;;;;;49.18;17.28;98951.88;4839449;29;20046;-56
2021/07/17 10:03:49;;;;;;;16.50;14.95;;;;;;;50.05;16.29;98947.88;4835719;29;20510;-57
2021/07/17 10:06:31;;;;;;;33.50;18.23;;;;;;;50.51;15.48;98942.72;4838398;29;20042;-57
2021/07/17 10:08:58;;;;;;;413.60;71.25;;;;;;;50.49;15.77;98945.81;4829724;29;20078;-57
2021/07/17 10:11:27;;;;;;;57.55;21.45;;;;;;;50.13;16.54;98939.94;4846079;29;21019;-55
2021/07/17 10:13:54;;;;;;;20.92;14.63;;;;;;;49.19;16.47;98938.88;4832672;29;20128;-58
2021/07/17 10:16:21;;;;;;;;;;;;;;;47.53;17.62;98937.59;4822213;29;20514;-56
2021/07/17 10:18:48;;;;;;;17.88;13.25;;;;;;;45.89;19.41;98939.63;4831059;29;20064;-57
2021/07/17 10:21:14;;;;;;;274.88;48.92;;;;;;;44.31;21.03;98934.63;4831837;29;20037;-55
2021/07/17 10:23:40;;;;;;;421.38;67.03;;;;;;;43.00;22.49;98926.28;4835236;29;20046;-56
2021/07/17 10:26:07;;;;;;;112.53;26.92;;;;;;;41.90;23.85;98935.63;4838272;29;20541;-54
2021/07/17 10:28:33;;;;;;;38.15;13.77;;;;;;;40.94;25.21;98942.50;4827754;29;20050;-53
2021/07/17 10:31:00;;;;;;;24.05;12.50;;;;;;;40.01;26.37;98935.97;4829488;29;20469;-55
2021/07/17 10:33:28;;;;;;;24.05;11.48;;;;;;;39.13;27.48;98942.75;4833608;29;20516;-54
2021/07/17 10:35:54;;;;;;;18.60;11.20;;;;;;;38.37;29.07;98935.47;4801461;29;20046;-54
2021/07/17 10:38:20;;;;;;;27.63;11.25;;;;;;;37.68;30.57;98948.53;4805799;29;21951;-52
2021/07/17 10:40:48;;;;;;;60.47;12.75;;;;;;;36.98;31.53;98945.28;4829289;29;20048;-54
2021/07/17 10:43:14;;;;;;;29.98;13.77;;;;;;;36.29;33.28;98942.44;4816786;29;20612;-57
2021/07/17 10:45:43;;;;;;;11.38;10.13;;;;;;;35.71;34.14;98966.72;4818998;29;20430;-54
2021/07/17 10:48:28;;;;;;;38.92;13.48;;;;;;;34.92;37.25;98973.16;4825560;29;20081;-54
2021/07/17 10:51:00;;;;;;;24.58;11.68;;;;;;;34.12;40.35;98990.38;4828007;29;20527;-54
2021/07/17 10:53:48;;;;;;;15.57;11.25;;;;;;;33.40;43.01;99010.53;4816976;29;20505;-54
2021/07/17 10:56:29;;;;;;;17.25;11.40;;;;;;;32.72;45.83;99034.38;4824018;29;20054;-55
2021/07/17 10:59:11;;;;;;;17.30;12.02;;;;;;;32.17;47.39;99054.50;4837798;29;20089;-55
2021/07/17 11:02:00;;;;;;;13.75;8.43;;;;;;;31.42;47.63;99056.34;4837781;29;20046;-52
2021/07/17 11:04:44;;;;;;;16.77;10.07;;;;;;;30.62;51.75;99070.34;4829385;29;20057;-55
2021/07/17 11:07:16;;;;;;;10.75;8.85;;;;;;;30.01;51.31;99081.78;4830272;29;20049;-56
2021/07/17 11:10:07;;;;;;;12.05;8.48;;;;;;;29.54;53.39;99084.94;4834368;29;20050;-54
2021/07/17 11:12:36;;;;;;;32.03;11.32;;;;;;;29.15;55.00;99079.91;4830204;29;20491;-55
2021/07/17 11:15:07;;;;;;;39.72;11.25;;;;;;;28.81;55.09;99075.94;4847966;29;20046;-51
2021/07/17 11:18:18;;;;;;;46.35;12.30;;;;;;;28.53;56.73;99077.53;4831197;29;20236;-54